Time,TemperatureF,DewpointF,PressureIn,WindDirection,WindDirectionDegrees,WindSpeedMPH,WindSpeedGustMPH,Humidity,HourlyPrecipIn,Conditions,Clouds,dailyrainin,SoftwareType,DateUTC
2013-04-21 00:02:00,48.9,8.5,30.27,WSW,239,10.5,13.2,19,-99.99,,---,-99.99,VWS V14.01,2013-04-21 07:02:00,
2013-04-21 00:07:00,48.9,8.5,30.27,SW,231,11.9,11.9,19,-99.99,,---,-99.99,VWS V14.01,2013-04-21 07:07:00,
2013-04-21 00:12:00,48.9,8.5,30.27,SW,233,13.2,13.2,19,-99.99,,---,-99.99,VWS V14.01,2013-04-21 07:12:00,
2013-04-21 00:17:00,48.9,8.5,30.27,WSW,242,12.3,12.8,19,-99.99,,---,-99.99,VWS V14.01,2013-04-21 07:17:00,
2013-04-21 00:22:00,49.5,8.9,30.27,SW,233,13.2,13.2,19,-99.99,,---,-99.99,VWS V14.01,2013-04-21 07:22:00,
2013-04-21 00:27:00,49.8,9.2,30.27,WSW,241,12.8,15.0,19,-99.99,,---,-99.99,VWS V14.01,2013-04-21 07:27:00,
2013-04-21 00:32:00,49.6,9.1,30.27,WSW,237,15.0,15.0,19,-99.99,,---,-99.99,VWS V14.01,2013-04-21 07:32:00,
2013-04-21 00:37:00,49.6,9.1,30.27,WSW,238,11.0,15.0,19,-99.99,,---,-99.99,VWS V14.01,2013-04-21 07:37:00,
2013-04-21 00:42:00,50.0,9.4,30.27,WSW,243,13.2,13.2,19,-99.99,,---,-99.99,VWS V14.01,2013-04-21 07:42:00,
2013-04-21 00:47:00,50.0,9.4,30.27,WSW,242,12.3,12.3,19,-99.99,,---,-99.99,VWS V14.01,2013-04-21 07:47:00,
2013-04-21 00:52:00,50.0,9.4,30.27,SW,235,12.8,12.8,19,-99.99,,---,-99.99,VWS V14.01,2013-04-21 07:52:00,
2013-04-21 00:57:00,50.0,9.4,30.27,WSW,243,13.2,13.6,19,-99.99,,---,-99.99,VWS V14.01,2013-04-21 07:57:00,
2013-04-21 01:03:00,50.0,9.4,30.27,WSW,251,12.8,13.2,19,-99.99,,---,-99.99,VWS V14.01,2013-04-21 08:03:00,
2013-04-21 01:08:00,49.8,9.2,30.27,SW,233,15.0,15.0,19,-99.99,,---,-99.99,VWS V14.01,2013-04-21 08:08:00,
2013-04-21 01:13:00,49.6,9.1,30.27,WSW,249,11.0,13.2,19,-99.99,,---,-99.99,VWS V14.01,2013-04-21 08:13:00,
2013-04-21 01:18:00,49.6,9.1,30.27,WSW,244,15.4,15.4,19,-99.99,,---,-99.99,VWS V14.01,2013-04-21 08:18:00,
2013-04-21 01:23:00,49.6,9.1,30.27,SW,232,12.8,12.8,19,-99.99,,---,-99.99,VWS V14.01,2013-04-21 08:23:00,
2013-04-21 01:28:00,49.6,9.1,30.27,WSW,240,12.8,12.8,19,-99.99,,---,-99.99,VWS V14.01,2013-04-21 08:28:00,
2013-04-21 01:33:00,48.7,8.3,30.27,WSW,249,11.4,15.4,19,-99.99,,---,-99.99,VWS V14.01,2013-04-21 08:33:00,
2013-04-21 01:38:00,48.7,8.3,30.27,WSW,249,15.9,15.9,19,-99.99,,---,-99.99,VWS V14.01,2013-04-21 08:38:00,
2013-04-21 01:43:00,48.7,8.3,30.27,WSW,245,13.2,13.2,19,-99.99,,---,-99.99,VWS V14.01,2013-04-21 08:43:00,
2013-04-21 01:48:00,48.7,8.3,30.27,WSW,242,13.2,13.2,19,-99.99,,---,-99.99,VWS V14.01,2013-04-21 08:48:00,
2013-04-21 01:53:00,48.7,8.3,30.27,WSW,242,13.2,15.0,19,-99.99,,---,-99.99,VWS V14.01,2013-04-21 08:53:00,
2013-04-21 01:58:00,48.7,8.3,30.27,WSW,253,14.1,14.1,19,-99.99,,---,-99.99,VWS V14.01,2013-04-21 08:58:00,
2013-04-21 02:03:00,48.7,8.3,30.27,WSW,250,13.2,13.2,19,-99.99,,---,-99.99,VWS V14.01,2013-04-21 09:03:00,
2013-04-21 02:08:00,48.7,8.3,30.27,WSW,241,15.4,15.4,19,-99.99,,---,-99.99,VWS V14.01,2013-04-21 09:08:00,
2013-04-21 02:13:00,48.6,8.2,30.27,WSW,252,14.1,14.1,19,-99.99,,---,-99.99,VWS V14.01,2013-04-21 09:13:00,
2013-04-21 02:18:00,48.7,8.3,30.27,WSW,251,15.0,15.0,19,-99.99,,---,-99.99,VWS V14.01,2013-04-21 09:18:00,
2013-04-21 02:23:00,48.7,8.3,30.27,WSW,246,13.6,16.3,19,-99.99,,---,-99.99,VWS V14.01,2013-04-21 09:23:00,
2013-04-21 02:28:00,48.7,8.3,30.27,WSW,258,13.2,15.0,19,-99.99,,---,-99.99,VWS V14.01,2013-04-21 09:28:00,
2013-04-21 02:33:00,48.7,8.3,30.27,WSW,253,15.0,15.0,19,-99.99,,---,-99.99,VWS V14.01,2013-04-21 09:33:00,
2013-04-21 02:38:00,48.7,8.3,30.27,WSW,247,14.1,16.3,19,-99.99,,---,-99.99,VWS V14.01,2013-04-21 09:38:00,
2013-04-21 02:43:00,48.7,8.3,30.27,SW,236,13.2,13.6,19,-99.99,,---,-99.99,VWS V14.01,2013-04-21 09:43:00,
2013-04-21 02:48:00,48.7,8.3,30.27,WSW,250,14.5,15.4,19,-99.99,,---,-99.99,VWS V14.01,2013-04-21 09:48:00,
2013-04-21 02:53:00,48.7,8.3,30.27,WSW,245,17.4,17.4,19,-99.99,,---,-99.99,VWS V14.01,2013-04-21 09:53:00,
2013-04-21 02:58:00,48.7,8.3,30.27,WSW,245,15.0,15.0,19,-99.99,,---,-99.99,VWS V14.01,2013-04-21 09:58:00,
2013-04-21 03:03:00,48.4,8.0,30.27,WSW,248,12.8,15.4,19,-99.99,,---,-99.99,VWS V14.01,2013-04-21 10:03:00,
2013-04-21 03:08:00,48.4,8.0,30.27,WSW,241,16.8,16.8,19,-99.99,,---,-99.99,VWS V14.01,2013-04-21 10:08:00,
2013-04-21 03:13:00,48.4,8.0,30.27,WSW,249,16.3,16.3,19,-99.99,,---,-99.99,VWS V14.01,2013-04-21 10:13:00,
2013-04-21 03:19:00,48.4,8.0,30.27,WSW,251,15.4,15.4,19,-99.99,,---,-99.99,VWS V14.01,2013-04-21 10:19:00,
2013-04-21 03:24:00,48.4,8.0,30.27,WSW,245,16.3,16.3,19,-99.99,,---,-99.99,VWS V14.01,2013-04-21 10:24:00,
2013-04-21 03:29:00,48.0,7.7,30.27,WSW,243,12.8,14.5,19,-99.99,,---,-99.99,VWS V14.01,2013-04-21 10:29:00,
2013-04-21 03:34:00,48.0,7.7,30.27,WSW,249,15.0,15.9,19,-99.99,,---,-99.99,VWS V14.01,2013-04-21 10:34:00,
2013-04-21 03:39:00,48.0,7.7,30.27,WSW,240,16.8,16.8,19,-99.99,,---,-99.99,VWS V14.01,2013-04-21 10:39:00,
2013-04-21 03:44:00,48.0,7.7,30.27,WSW,244,16.3,16.3,19,-99.99,,---,-99.99,VWS V14.01,2013-04-21 10:44:00,
2013-04-21 03:49:00,47.8,7.6,30.27,WSW,247,13.2,17.0,19,-99.99,,---,-99.99,VWS V14.01,2013-04-21 10:49:00,
2013-04-21 03:54:00,47.7,7.4,30.27,WSW,247,15.4,15.4,19,-99.99,,---,-99.99,VWS V14.01,2013-04-21 10:54:00,
2013-04-21 03:59:00,47.7,7.4,30.27,WSW,249,12.8,12.8,19,-99.99,,---,-99.99,VWS V14.01,2013-04-21 10:59:00,
2013-04-21 04:04:00,47.7,7.4,30.27,WSW,244,16.3,16.3,19,-99.99,,---,-99.99,VWS V14.01,2013-04-21 11:04:00,
2013-04-21 04:09:00,47.7,7.4,30.27,WSW,246,15.0,15.0,19,-99.99,,---,-99.99,VWS V14.01,2013-04-21 11:09:00,
2013-04-21 04:14:00,47.5,7.3,30.27,WSW,243,15.0,15.0,19,-99.99,,---,-99.99,VWS V14.01,2013-04-21 11:14:00,
2013-04-21 04:19:00,47.5,7.3,30.27,WSW,253,15.0,15.0,19,-99.99,,---,-99.99,VWS V14.01,2013-04-21 11:19:00,
2013-04-21 04:24:00,47.3,7.1,30.27,WSW,245,15.0,15.0,19,-99.99,,---,-99.99,VWS V14.01,2013-04-21 11:24:00,
2013-04-21 04:29:00,47.5,7.3,30.27,WSW,247,15.0,15.0,19,-99.99,,---,-99.99,VWS V14.01,2013-04-21 11:29:00,
2013-04-21 04:34:00,47.5,7.3,30.27,WSW,242,13.2,15.0,19,-99.99,,---,-99.99,VWS V14.01,2013-04-21 11:34:00,
2013-04-21 04:39:00,48.2,7.9,30.27,WSW,238,15.0,15.0,19,-99.99,,---,-99.99,VWS V14.01,2013-04-21 11:39:00,
2013-04-21 04:44:00,48.0,7.7,30.27,WSW,247,15.4,15.4,19,-99.99,,---,-99.99,VWS V14.01,2013-04-21 11:44:00,
2013-04-21 04:49:00,48.0,7.7,30.27,WSW,251,17.4,17.4,19,-99.99,,---,-99.99,VWS V14.01,2013-04-21 11:49:00,
2013-04-21 04:54:00,48.0,7.7,30.27,WSW,251,16.3,16.3,19,-99.99,,---,-99.99,VWS V14.01,2013-04-21 11:54:00,
2013-04-21 04:59:00,48.2,7.9,30.27,WSW,247,15.4,15.4,19,-99.99,,---,-99.99,VWS V14.01,2013-04-21 11:59:00,
2013-04-21 05:04:00,48.4,8.0,30.27,WSW,253,15.0,17.0,19,-99.99,,---,-99.99,VWS V14.01,2013-04-21 12:04:00,
2013-04-21 05:09:00,48.4,8.0,30.27,WSW,252,17.0,17.0,19,-99.99,,---,-99.99,VWS V14.01,2013-04-21 12:09:00,
2013-04-21 05:14:00,48.6,8.2,30.27,WSW,248,14.5,17.4,19,-99.99,,---,-99.99,VWS V14.01,2013-04-21 12:14:00,
2013-04-21 05:20:00,48.6,8.2,30.27,WSW,247,15.4,15.4,19,-99.99,,---,-99.99,VWS V14.01,2013-04-21 12:20:00,
2013-04-21 05:25:00,48.9,8.5,30.27,WSW,246,17.4,17.4,19,-99.99,,---,-99.99,VWS V14.01,2013-04-21 12:25:00,
2013-04-21 05:30:00,48.7,8.3,30.27,WSW,243,15.9,15.9,19,-99.99,,---,-99.99,VWS V14.01,2013-04-21 12:30:00,
2013-04-21 05:35:00,48.7,8.3,30.27,WSW,246,15.4,15.4,19,-99.99,,---,-99.99,VWS V14.01,2013-04-21 12:35:00,
2013-04-21 05:40:00,48.7,8.3,30.27,WSW,245,14.5,14.5,19,-99.99,,---,-99.99,VWS V14.01,2013-04-21 12:40:00,
2013-04-21 05:45:00,48.7,8.3,30.27,WSW,245,16.8,16.8,19,-99.99,,---,-99.99,VWS V14.01,2013-04-21 12:45:00,
2013-04-21 05:50:00,48.7,8.3,30.27,WSW,251,17.9,18.3,19,-99.99,,---,-99.99,VWS V14.01,2013-04-21 12:50:00,
2013-04-21 05:55:00,48.9,8.5,30.27,WSW,252,17.0,17.0,19,-99.99,,---,-99.99,VWS V14.01,2013-04-21 12:55:00,
2013-04-21 06:00:00,48.9,8.5,30.27,WSW,254,17.4,17.4,19,-99.99,,---,-99.99,VWS V14.01,2013-04-21 13:00:00,
2013-04-21 06:05:00,48.9,8.5,30.27,WSW,254,18.8,18.8,19,-99.99,,---,-99.99,VWS V14.01,2013-04-21 13:05:00,
2013-04-21 06:10:00,49.1,8.6,30.27,WSW,240,15.0,15.0,19,-99.99,,---,-99.99,VWS V14.01,2013-04-21 13:10:00,
2013-04-21 06:15:00,49.1,8.6,30.27,WSW,252,17.4,17.4,19,-99.99,,---,-99.99,VWS V14.01,2013-04-21 13:15:00,
2013-04-21 06:20:00,49.1,8.6,30.27,WSW,250,18.3,18.3,19,-99.99,,---,-99.99,VWS V14.01,2013-04-21 13:20:00,
2013-04-21 06:25:00,49.1,8.6,30.27,WSW,247,17.4,17.4,19,-99.99,,---,-99.99,VWS V14.01,2013-04-21 13:25:00,
2013-04-21 06:30:00,50.4,9.7,30.27,West,260,17.4,17.4,19,-99.99,,---,-99.99,VWS V14.01,2013-04-21 13:30:00,
2013-04-21 06:35:00,50.9,10.1,30.27,WSW,244,15.4,15.4,19,-99.99,,---,-99.99,VWS V14.01,2013-04-21 13:35:00,
2013-04-21 06:40:00,51.1,10.3,30.27,West,265,15.4,15.4,19,-99.99,,---,-99.99,VWS V14.01,2013-04-21 13:40:00,
2013-04-21 06:45:00,51.1,10.3,30.27,WSW,254,15.4,15.4,19,-99.99,,---,-99.99,VWS V14.01,2013-04-21 13:45:00,
2013-04-21 06:50:00,51.4,10.6,30.27,West,259,15.4,15.4,19,-99.99,,---,-99.99,VWS V14.01,2013-04-21 13:50:00,
2013-04-21 06:55:00,51.4,10.6,30.27,WSW,245,18.3,18.3,19,-99.99,,---,-99.99,VWS V14.01,2013-04-21 13:55:00,
2013-04-21 07:00:00,51.3,10.4,30.27,WSW,252,15.9,15.9,19,-99.99,,---,-99.99,VWS V14.01,2013-04-21 14:00:00,
2013-04-21 07:05:00,51.3,10.4,30.27,West,262,13.2,17.4,19,-99.99,,---,-99.99,VWS V14.01,2013-04-21 14:05:00,
2013-04-21 07:10:00,51.3,10.4,30.27,West,266,17.4,17.4,19,-99.99,,---,-99.99,VWS V14.01,2013-04-21 14:10:00,
2013-04-21 07:15:00,51.3,10.4,30.27,WSW,255,13.6,15.4,19,-99.99,,---,-99.99,VWS V14.01,2013-04-21 14:15:00,
2013-04-21 07:20:00,51.8,9.7,30.27,West,260,12.8,15.4,18,-99.99,,---,-99.99,VWS V14.01,2013-04-21 14:20:00,
2013-04-21 07:25:00,52.0,9.8,30.27,WSW,252,15.4,15.4,18,-99.99,,---,-99.99,VWS V14.01,2013-04-21 14:25:00,
2013-04-21 07:30:00,52.5,10.2,30.27,West,261,13.2,15.4,18,-99.99,,---,-99.99,VWS V14.01,2013-04-21 14:30:00,
2013-04-21 07:35:00,52.5,10.2,30.27,WSW,252,15.9,15.9,18,-99.99,,---,-99.99,VWS V14.01,2013-04-21 14:35:00,
2013-04-21 07:40:00,52.5,10.2,30.27,WSW,257,14.1,17.4,18,-99.99,,---,-99.99,VWS V14.01,2013-04-21 14:40:00,
2013-04-21 07:45:00,53.4,11.0,30.27,West,260,12.8,12.8,18,-99.99,,---,-99.99,VWS V14.01,2013-04-21 14:45:00,
2013-04-21 07:50:00,53.6,11.1,30.27,WSW,254,13.2,13.2,18,-99.99,,---,-99.99,VWS V14.01,2013-04-21 14:50:00,
2013-04-21 07:55:00,53.8,11.3,30.27,WSW,252,15.0,15.0,18,-99.99,,---,-99.99,VWS V14.01,2013-04-21 14:55:00,
2013-04-21 08:00:00,53.8,11.3,30.27,WSW,253,14.1,14.1,18,-99.99,,---,-99.99,VWS V14.01,2013-04-21 15:00:00,
2013-04-21 08:05:00,54.7,12.0,30.27,WSW,257,12.8,13.2,18,-99.99,,---,-99.99,VWS V14.01,2013-04-21 15:05:00,
2013-04-21 08:10:00,55.0,12.3,30.27,WSW,253,10.5,10.5,18,-99.99,,---,-99.99,VWS V14.01,2013-04-21 15:10:00,
2013-04-21 08:16:00,55.2,12.5,30.27,West,261,10.1,13.2,18,-99.99,,---,-99.99,VWS V14.01,2013-04-21 15:16:00,
2013-04-21 08:21:00,55.2,12.5,30.27,West,262,10.5,10.5,18,-99.99,,---,-99.99,VWS V14.01,2013-04-21 15:21:00,
2013-04-21 08:26:00,55.2,12.5,30.27,West,262,8.3,12.3,18,-99.99,,---,-99.99,VWS V14.01,2013-04-21 15:26:00,
2013-04-21 08:31:00,56.3,12.1,30.27,West,267,11.9,12.3,17,-99.99,,---,-99.99,VWS V14.01,2013-04-21 15:31:00,
2013-04-21 08:36:00,56.3,12.1,30.27,West,267,10.5,13.2,17,-99.99,,---,-99.99,VWS V14.01,2013-04-21 15:36:00,
2013-04-21 08:41:00,56.7,12.4,30.27,West,261,10.1,15.0,17,-99.99,,---,-99.99,VWS V14.01,2013-04-21 15:41:00,
2013-04-21 08:46:00,56.7,12.4,30.27,West,261,10.5,11.0,17,-99.99,,---,-99.99,VWS V14.01,2013-04-21 15:46:00,
2013-04-21 08:51:00,57.0,12.7,30.27,WSW,258,11.0,11.0,17,-99.99,,---,-99.99,VWS V14.01,2013-04-21 15:51:00,
2013-04-21 08:56:00,58.1,13.5,30.27,West,259,6.3,6.3,17,-99.99,,---,-99.99,VWS V14.01,2013-04-21 15:56:00,
2013-04-21 09:01:00,58.5,13.8,30.27,WSW,252,11.0,11.0,17,-99.99,,---,-99.99,VWS V14.01,2013-04-21 16:01:00,
2013-04-21 09:06:00,58.5,13.8,30.27,WSW,258,8.7,8.7,17,-99.99,,---,-99.99,VWS V14.01,2013-04-21 16:06:00,
2013-04-21 09:11:00,58.8,14.1,30.27,West,268,0.0,0.0,17,-99.99,,---,-99.99,VWS V14.01,2013-04-21 16:11:00,
2013-04-21 09:16:00,58.8,14.1,30.27,West,271,0.0,0.0,17,-99.99,,---,-99.99,VWS V14.01,2013-04-21 16:16:00,
2013-04-21 09:21:00,59.4,14.6,30.27,West,269,0.0,0.0,17,-99.99,,---,-99.99,VWS V14.01,2013-04-21 16:21:00,
2013-04-21 09:26:00,59.4,14.6,30.27,West,264,0.0,0.0,17,-99.99,,---,-99.99,VWS V14.01,2013-04-21 16:26:00,
2013-04-21 09:31:00,59.5,14.7,30.27,West,266,0.0,0.0,17,-99.99,,---,-99.99,VWS V14.01,2013-04-21 16:31:00,
2013-04-21 09:36:00,59.5,14.7,30.27,West,277,0.0,0.0,17,-99.99,,---,-99.99,VWS V14.01,2013-04-21 16:36:00,
2013-04-21 09:41:00,59.9,15.0,30.27,West,266,0.0,0.0,17,-99.99,,---,-99.99,VWS V14.01,2013-04-21 16:41:00,
2013-04-21 09:46:00,60.4,15.4,30.27,WSW,257,0.0,0.0,17,-99.99,,---,-99.99,VWS V14.01,2013-04-21 16:46:00,
2013-04-21 09:51:00,60.8,14.4,30.27,WSW,258,0.0,0.0,16,-99.99,,---,-99.99,VWS V14.01,2013-04-21 16:51:00,
2013-04-21 09:56:00,60.8,14.4,30.27,WSW,251,0.0,0.0,16,-99.99,,---,-99.99,VWS V14.01,2013-04-21 16:56:00,
2013-04-21 10:01:00,60.8,14.4,30.27,WNW,294,0.0,0.0,16,-99.99,,---,-99.99,VWS V14.01,2013-04-21 17:01:00,
2013-04-21 10:06:00,62.8,15.9,30.27,WNW,289,0.0,0.0,16,-99.99,,---,-99.99,VWS V14.01,2013-04-21 17:06:00,
2013-04-21 10:11:00,62.8,15.9,30.27,WNW,294,0.0,0.0,16,-99.99,,---,-99.99,VWS V14.01,2013-04-21 17:11:00,
2013-04-21 10:16:00,62.8,15.9,30.27,West,260,0.0,0.0,16,-99.99,,---,-99.99,VWS V14.01,2013-04-21 17:16:00,
2013-04-21 10:21:00,62.8,15.9,30.24,West,281,0.0,0.0,16,-99.99,,---,-99.99,VWS V14.01,2013-04-21 17:21:00,
2013-04-21 10:26:00,64.4,15.8,30.24,WNW,295,0.0,0.0,15,-99.99,,---,-99.99,VWS V14.01,2013-04-21 17:26:00,
2013-04-21 10:31:00,65.1,16.4,30.24,West,264,0.0,0.0,15,-99.99,,---,-99.99,VWS V14.01,2013-04-21 17:31:00,
2013-04-21 10:36:00,65.1,16.4,30.24,WSW,256,0.0,0.0,15,-99.99,,---,-99.99,VWS V14.01,2013-04-21 17:36:00,
2013-04-21 10:41:00,65.1,16.4,30.24,West,268,0.0,0.0,15,-99.99,,---,-99.99,VWS V14.01,2013-04-21 17:41:00,
2013-04-21 10:46:00,66.4,17.4,30.24,NNW,331,0.0,0.0,15,-99.99,,---,-99.99,VWS V14.01,2013-04-21 17:46:00,
2013-04-21 10:51:00,66.9,17.8,30.24,WNW,290,0.0,0.0,15,-99.99,,---,-99.99,VWS V14.01,2013-04-21 17:51:00,
2013-04-21 10:56:00,66.7,17.6,30.24,North,5,0.0,0.0,15,-99.99,,---,-99.99,VWS V14.01,2013-04-21 17:56:00,
2013-04-21 11:01:00,66.7,17.6,30.24,NNE,23,0.0,0.0,15,-99.99,,---,-99.99,VWS V14.01,2013-04-21 18:01:00,
2013-04-21 11:06:00,66.7,17.6,30.24,East,82,0.0,0.0,15,-99.99,,---,-99.99,VWS V14.01,2013-04-21 18:06:00,
2013-04-21 11:11:00,69.3,19.7,30.24,East,99,0.0,0.0,15,-99.99,,---,-99.99,VWS V14.01,2013-04-21 18:11:00,
2013-04-21 11:17:00,70.2,18.8,30.24,ESE,113,0.0,0.0,14,-99.99,,---,-99.99,VWS V14.01,2013-04-21 18:17:00,
2013-04-21 11:22:00,70.7,19.2,30.24,East,92,0.0,0.0,14,-99.99,,---,-99.99,VWS V14.01,2013-04-21 18:22:00,
2013-04-21 11:27:00,70.3,18.9,30.24,ESE,113,0.0,0.0,14,-99.99,,---,-99.99,VWS V14.01,2013-04-21 18:27:00,
2013-04-21 11:32:00,70.2,18.8,30.24,East,99,0.0,0.0,14,-99.99,,---,-99.99,VWS V14.01,2013-04-21 18:32:00,
2013-04-21 11:37:00,70.2,18.8,30.24,WNW,287,0.0,0.0,14,-99.99,,---,-99.99,VWS V14.01,2013-04-21 18:37:00,
2013-04-21 11:42:00,69.1,19.5,30.24,ESE,119,0.0,0.0,15,-99.99,,---,-99.99,VWS V14.01,2013-04-21 18:42:00,
2013-04-21 11:47:00,69.8,18.5,30.24,NNE,27,0.0,0.0,14,-99.99,,---,-99.99,VWS V14.01,2013-04-21 18:47:00,
2013-04-21 11:52:00,70.0,18.6,30.24,NNE,25,0.0,0.0,14,-99.99,,---,-99.99,VWS V14.01,2013-04-21 18:52:00,
2013-04-21 11:57:00,69.8,18.5,30.24,NNW,343,0.0,0.0,14,-99.99,,---,-99.99,VWS V14.01,2013-04-21 18:57:00,
2013-04-21 12:02:00,67.5,18.2,30.24,WSW,254,0.0,0.0,15,-99.99,,---,-99.99,VWS V14.01,2013-04-21 19:02:00,
2013-04-21 12:07:00,69.3,19.7,30.24,NNE,32,0.0,0.0,15,-99.99,,---,-99.99,VWS V14.01,2013-04-21 19:07:00,
2013-04-21 12:12:00,69.3,19.7,30.24,North,0,0.0,0.0,15,-99.99,,---,-99.99,VWS V14.01,2013-04-21 19:12:00,
2013-04-21 12:17:00,69.3,19.7,30.24,SE,133,0.0,0.0,15,-99.99,,---,-99.99,VWS V14.01,2013-04-21 19:17:00,
2013-04-21 12:22:00,70.7,19.2,30.24,West,262,0.0,0.0,14,-99.99,,---,-99.99,VWS V14.01,2013-04-21 19:22:00,
2013-04-21 12:27:00,67.1,17.9,30.24,SW,233,8.1,8.1,15,-99.99,,---,-99.99,VWS V14.01,2013-04-21 19:27:00,
2013-04-21 12:32:00,67.3,18.1,30.24,SSE,155,0.0,0.0,15,-99.99,,---,-99.99,VWS V14.01,2013-04-21 19:32:00,
2013-04-21 12:37:00,67.3,18.1,30.24,SW,216,0.0,0.0,15,-99.99,,---,-99.99,VWS V14.01,2013-04-21 19:37:00,
2013-04-21 12:42:00,67.3,18.1,30.24,WSW,258,0.0,0.0,15,-99.99,,---,-99.99,VWS V14.01,2013-04-21 19:42:00,
2013-04-21 12:47:00,67.6,18.4,30.24,South,190,0.0,0.0,15,-99.99,,---,-99.99,VWS V14.01,2013-04-21 19:47:00,
2013-04-21 12:52:00,68.7,19.2,30.24,South,169,0.0,4.9,15,-99.99,,---,-99.99,VWS V14.01,2013-04-21 19:52:00,
2013-04-21 12:57:00,68.7,19.2,30.24,SSW,204,0.0,0.0,15,-99.99,,---,-99.99,VWS V14.01,2013-04-21 19:57:00,
2013-04-21 13:02:00,68.7,19.2,30.24,SSW,208,0.0,0.0,15,-99.99,,---,-99.99,VWS V14.01,2013-04-21 20:02:00,
2013-04-21 13:07:00,69.8,18.5,30.24,South,181,0.0,0.0,14,-99.99,,---,-99.99,VWS V14.01,2013-04-21 20:07:00,
2013-04-21 13:12:00,69.6,20.0,30.24,SSE,168,0.0,0.0,15,-99.99,,---,-99.99,VWS V14.01,2013-04-21 20:12:00,
2013-04-21 13:17:00,70.0,18.6,30.24,SSW,193,0.0,0.0,14,-99.99,,---,-99.99,VWS V14.01,2013-04-21 20:17:00,
2013-04-21 13:22:00,70.2,18.8,30.24,South,169,0.0,0.0,14,-99.99,,---,-99.99,VWS V14.01,2013-04-21 20:22:00,
2013-04-21 13:27:00,70.9,19.4,30.24,SSE,167,0.0,0.0,14,-99.99,,---,-99.99,VWS V14.01,2013-04-21 20:27:00,
2013-04-21 13:32:00,70.9,19.4,30.24,SSE,162,0.0,0.0,14,-99.99,,---,-99.99,VWS V14.01,2013-04-21 20:32:00,
2013-04-21 13:37:00,71.2,19.6,30.24,South,176,0.0,0.0,14,-99.99,,---,-99.99,VWS V14.01,2013-04-21 20:37:00,
2013-04-21 13:43:00,71.4,19.8,30.24,South,175,0.0,0.0,14,-99.99,,---,-99.99,VWS V14.01,2013-04-21 20:43:00,
2013-04-21 13:48:00,72.0,20.2,30.24,South,173,0.0,0.0,14,-99.99,,---,-99.99,VWS V14.01,2013-04-21 20:48:00,
2013-04-21 13:53:00,72.0,20.2,30.24,SSE,156,0.0,0.0,14,-99.99,,---,-99.99,VWS V14.01,2013-04-21 20:53:00,
2013-04-21 13:58:00,72.5,20.6,30.24,SSE,154,0.0,0.0,14,-99.99,,---,-99.99,VWS V14.01,2013-04-21 20:58:00,
2013-04-21 14:03:00,71.6,19.9,30.24,SSE,157,0.0,0.0,14,-99.99,,---,-99.99,VWS V14.01,2013-04-21 21:03:00,
2013-04-21 14:08:00,71.6,19.9,30.24,SSE,154,0.0,0.0,14,-99.99,,---,-99.99,VWS V14.01,2013-04-21 21:08:00,
2013-04-21 14:13:00,72.3,20.5,30.24,ESE,112,0.0,0.0,14,-99.99,,---,-99.99,VWS V14.01,2013-04-21 21:13:00,
2013-04-21 14:18:00,72.3,20.5,30.24,SSE,157,0.0,0.0,14,-99.99,,---,-99.99,VWS V14.01,2013-04-21 21:18:00,
2013-04-21 14:23:00,73.4,19.6,30.24,SSE,157,0.0,0.0,13,-99.99,,---,-99.99,VWS V14.01,2013-04-21 21:23:00,
2013-04-21 14:28:00,73.8,19.9,30.24,SE,134,0.0,0.0,13,-99.99,,---,-99.99,VWS V14.01,2013-04-21 21:28:00,
2013-04-21 14:33:00,74.1,20.2,30.24,NE,53,10.1,10.1,13,-99.99,,---,-99.99,VWS V14.01,2013-04-21 21:33:00,
2013-04-21 14:38:00,74.1,20.2,30.24,South,187,0.0,0.0,13,-99.99,,---,-99.99,VWS V14.01,2013-04-21 21:38:00,
2013-04-21 14:43:00,72.0,20.2,30.24,East,99,0.0,0.0,14,-99.99,,---,-99.99,VWS V14.01,2013-04-21 21:43:00,
2013-04-21 14:48:00,72.0,20.2,30.24,SSE,157,0.0,0.0,14,-99.99,,---,-99.99,VWS V14.01,2013-04-21 21:48:00,
2013-04-21 14:53:00,72.3,20.5,30.24,NNW,340,0.0,0.0,14,-99.99,,---,-99.99,VWS V14.01,2013-04-21 21:53:00,
2013-04-21 14:58:00,72.3,20.5,30.24,West,270,0.0,0.0,14,-99.99,,---,-99.99,VWS V14.01,2013-04-21 21:58:00,
2013-04-21 15:03:00,72.3,20.5,30.24,West,280,0.0,0.0,14,-99.99,,---,-99.99,VWS V14.01,2013-04-21 22:03:00,
2013-04-21 15:08:00,68.9,19.4,30.24,NNW,338,0.0,0.0,15,-99.99,,---,-99.99,VWS V14.01,2013-04-21 22:08:00,
2013-04-21 15:13:00,69.6,20.0,30.24,SSW,201,0.0,0.0,15,-99.99,,---,-99.99,VWS V14.01,2013-04-21 22:13:00,
2013-04-21 15:18:00,69.8,18.5,30.24,WNW,292,0.0,0.0,14,-99.99,,---,-99.99,VWS V14.01,2013-04-21 22:18:00,
2013-04-21 15:23:00,69.8,18.5,30.24,WSW,257,0.0,0.0,14,-99.99,,---,-99.99,VWS V14.01,2013-04-21 22:23:00,
2013-04-21 15:28:00,66.9,17.8,30.24,WSW,252,0.0,0.0,15,-99.99,,---,-99.99,VWS V14.01,2013-04-21 22:28:00,
2013-04-21 15:33:00,66.9,17.8,30.24,SSW,192,0.0,0.0,15,-99.99,,---,-99.99,VWS V14.01,2013-04-21 22:33:00,
2013-04-21 15:38:00,67.5,18.2,30.24,ENE,65,0.0,8.1,15,-99.99,,---,-99.99,VWS V14.01,2013-04-21 22:38:00,
2013-04-21 15:43:00,67.5,18.2,30.24,ESE,113,0.0,0.0,15,-99.99,,---,-99.99,VWS V14.01,2013-04-21 22:43:00,
2013-04-21 15:48:00,70.2,18.8,30.24,SW,233,0.0,0.0,14,-99.99,,---,-99.99,VWS V14.01,2013-04-21 22:48:00,
2013-04-21 15:53:00,70.2,18.8,30.24,SW,215,0.0,0.0,14,-99.99,,---,-99.99,VWS V14.01,2013-04-21 22:53:00,
2013-04-21 15:58:00,69.6,20.0,30.24,SSE,168,0.0,0.0,15,-99.99,,---,-99.99,VWS V14.01,2013-04-21 22:58:00,
2013-04-21 16:03:00,69.1,19.5,30.24,SW,219,0.0,0.0,15,-99.99,,---,-99.99,VWS V14.01,2013-04-21 23:03:00,
2013-04-21 16:08:00,69.1,19.5,30.24,SSE,162,0.0,0.0,15,-99.99,,---,-99.99,VWS V14.01,2013-04-21 23:08:00,
2013-04-21 16:13:00,68.2,18.8,30.24,WSW,238,0.0,0.0,15,-99.99,,---,-99.99,VWS V14.01,2013-04-21 23:13:00,
2013-04-21 16:18:00,65.8,16.9,30.24,South,182,0.0,0.0,15,-99.99,,---,-99.99,VWS V14.01,2013-04-21 23:18:00,
2013-04-21 16:23:00,64.8,16.1,30.24,SSW,198,0.0,0.0,15,-99.99,,---,-99.99,VWS V14.01,2013-04-21 23:23:00,
2013-04-21 16:28:00,64.8,16.1,30.24,SSE,165,8.3,8.3,15,-99.99,,---,-99.99,VWS V14.01,2013-04-21 23:28:00,
2013-04-21 16:33:00,63.5,16.5,30.24,SW,219,0.0,0.0,16,-99.99,,---,-99.99,VWS V14.01,2013-04-21 23:33:00,
2013-04-21 16:38:00,63.5,16.5,30.24,SW,229,5.4,5.4,16,-99.99,,---,-99.99,VWS V14.01,2013-04-21 23:38:00,
2013-04-21 16:43:00,62.2,15.5,30.24,SSW,208,6.3,6.3,16,-99.99,,---,-99.99,VWS V14.01,2013-04-21 23:43:00,
2013-04-21 16:48:00,62.2,15.5,30.24,SW,218,3.1,3.1,16,-99.99,,---,-99.99,VWS V14.01,2013-04-21 23:48:00,
2013-04-21 16:53:00,62.2,15.5,30.24,SSW,208,8.7,8.7,16,-99.99,,---,-99.99,VWS V14.01,2013-04-21 23:53:00,
2013-04-21 16:58:00,62.2,15.5,30.24,SSW,193,4.0,8.3,16,-99.99,,---,-99.99,VWS V14.01,2013-04-21 23:58:00,
2013-04-21 17:03:00,62.2,15.5,30.24,SW,225,0.0,5.8,16,-99.99,,---,-99.99,VWS V14.01,2013-04-22 00:03:00,
2013-04-21 17:08:00,61.0,14.5,30.24,WSW,241,8.7,8.7,16,-99.99,,---,-99.99,VWS V14.01,2013-04-22 00:08:00,
2013-04-21 17:13:00,60.8,14.4,30.24,WSW,237,3.6,8.3,16,-99.99,,---,-99.99,VWS V14.01,2013-04-22 00:13:00,
2013-04-21 17:18:00,60.8,14.4,30.24,SSW,194,8.1,8.1,16,-99.99,,---,-99.99,VWS V14.01,2013-04-22 00:18:00,
2013-04-21 17:23:00,60.8,14.4,30.24,SW,221,0.0,0.0,16,-99.99,,---,-99.99,VWS V14.01,2013-04-22 00:23:00,
2013-04-21 17:28:00,58.8,14.1,30.24,SSW,206,8.3,10.1,17,-99.99,,---,-99.99,VWS V14.01,2013-04-22 00:28:00,
2013-04-21 17:33:00,58.5,13.8,30.24,South,190,10.5,10.5,17,-99.99,,---,-99.99,VWS V14.01,2013-04-22 00:33:00,
2013-04-21 17:39:00,58.1,13.5,30.24,SW,224,8.7,11.0,17,-99.99,,---,-99.99,VWS V14.01,2013-04-22 00:39:00,
2013-04-21 17:44:00,58.1,13.5,30.24,South,172,0.0,3.6,17,-99.99,,---,-99.99,VWS V14.01,2013-04-22 00:44:00,
2013-04-21 17:49:00,57.4,12.9,30.24,SSW,200,14.1,14.1,17,-99.99,,---,-99.99,VWS V14.01,2013-04-22 00:49:00,
2013-04-21 17:54:00,57.2,12.8,30.24,WSW,237,11.0,11.0,17,-99.99,,---,-99.99,VWS V14.01,2013-04-22 00:54:00,
2013-04-21 17:59:00,57.0,12.7,30.24,SSW,202,10.1,10.1,17,-99.99,,---,-99.99,VWS V14.01,2013-04-22 00:59:00,
2013-04-21 18:04:00,57.0,12.7,30.24,SSW,198,10.1,10.1,17,-99.99,,---,-99.99,VWS V14.01,2013-04-22 01:04:00,
2013-04-21 18:09:00,56.7,12.4,30.24,SW,214,13.2,13.2,17,-99.99,,---,-99.99,VWS V14.01,2013-04-22 01:09:00,
2013-04-21 18:14:00,56.7,12.4,30.24,SSW,208,15.0,15.0,17,-99.99,,---,-99.99,VWS V14.01,2013-04-22 01:14:00,
2013-04-21 18:19:00,55.8,11.6,30.24,SW,226,13.2,13.2,17,-99.99,,---,-99.99,VWS V14.01,2013-04-22 01:19:00,
2013-04-21 18:24:00,55.4,11.3,30.24,SSW,212,11.0,15.0,17,-99.99,,---,-99.99,VWS V14.01,2013-04-22 01:24:00,
2013-04-21 18:29:00,55.0,12.3,30.24,SSW,209,13.6,13.6,18,-99.99,,---,-99.99,VWS V14.01,2013-04-22 01:29:00,
2013-04-21 18:34:00,55.0,12.3,30.24,SSW,209,13.6,13.6,18,-99.99,,---,-99.99,VWS V14.01,2013-04-22 01:34:00,
2013-04-21 18:39:00,54.1,11.6,30.24,SSW,198,11.9,12.8,18,-99.99,,---,-99.99,VWS V14.01,2013-04-22 01:39:00,
2013-04-21 18:44:00,53.8,11.3,30.24,SSW,204,13.2,13.2,18,-99.99,,---,-99.99,VWS V14.01,2013-04-22 01:44:00,
2013-04-21 18:49:00,53.6,11.1,30.24,SW,217,11.0,13.2,18,-99.99,,---,-99.99,VWS V14.01,2013-04-22 01:49:00,
2013-04-21 18:54:00,53.2,10.9,30.24,SSW,203,15.0,15.0,18,-99.99,,---,-99.99,VWS V14.01,2013-04-22 01:54:00,
2013-04-21 18:59:00,53.2,10.9,30.24,SW,221,12.8,13.6,18,-99.99,,---,-99.99,VWS V14.01,2013-04-22 01:59:00,
2013-04-21 19:04:00,52.5,10.2,30.24,SSW,211,16.8,16.8,18,-99.99,,---,-99.99,VWS V14.01,2013-04-22 02:04:00,
2013-04-21 19:09:00,52.3,10.1,30.24,SSW,207,10.5,10.5,18,-99.99,,---,-99.99,VWS V14.01,2013-04-22 02:09:00,
2013-04-21 19:14:00,52.3,10.1,30.24,SSW,212,17.4,17.4,18,-99.99,,---,-99.99,VWS V14.01,2013-04-22 02:14:00,
2013-04-21 19:19:00,52.3,10.1,30.24,SW,220,17.0,17.0,18,-99.99,,---,-99.99,VWS V14.01,2013-04-22 02:19:00,
2013-04-21 19:24:00,52.3,10.1,30.24,SW,231,11.9,11.9,18,-99.99,,---,-99.99,VWS V14.01,2013-04-22 02:24:00,
2013-04-21 19:29:00,51.1,10.3,30.24,SSW,210,14.5,14.5,19,-99.99,,---,-99.99,VWS V14.01,2013-04-22 02:29:00,
2013-04-21 19:34:00,50.9,10.1,30.24,SSW,204,15.4,15.4,19,-99.99,,---,-99.99,VWS V14.01,2013-04-22 02:34:00,
2013-04-21 19:39:00,50.9,10.1,30.24,SW,227,14.1,14.1,19,-99.99,,---,-99.99,VWS V14.01,2013-04-22 02:39:00,
2013-04-21 19:44:00,50.9,10.1,30.24,SSW,195,13.2,13.2,19,-99.99,,---,-99.99,VWS V14.01,2013-04-22 02:44:00,
2013-04-21 19:49:00,50.2,9.5,30.24,SW,231,16.8,16.8,19,-99.99,,---,-99.99,VWS V14.01,2013-04-22 02:49:00,
2013-04-21 19:54:00,50.2,9.5,30.24,SW,217,16.8,16.8,19,-99.99,,---,-99.99,VWS V14.01,2013-04-22 02:54:00,
2013-04-21 19:59:00,50.2,9.5,30.24,SSW,210,17.4,17.4,19,-99.99,,---,-99.99,VWS V14.01,2013-04-22 02:59:00,
2013-04-21 20:04:00,49.8,9.2,30.24,SW,227,15.4,18.3,19,-99.99,,---,-99.99,VWS V14.01,2013-04-22 03:04:00,
2013-04-21 20:09:00,49.8,9.2,30.24,SSW,210,15.4,15.4,19,-99.99,,---,-99.99,VWS V14.01,2013-04-22 03:09:00,
2013-04-21 20:14:00,49.8,9.2,30.24,SW,229,15.0,15.0,19,-99.99,,---,-99.99,VWS V14.01,2013-04-22 03:14:00,
2013-04-21 20:19:00,49.8,9.2,30.24,SW,226,17.4,17.4,19,-99.99,,---,-99.99,VWS V14.01,2013-04-22 03:19:00,
2013-04-21 20:24:00,49.8,9.2,30.24,SW,221,18.3,18.3,19,-99.99,,---,-99.99,VWS V14.01,2013-04-22 03:24:00,
2013-04-21 20:29:00,49.6,9.1,30.24,WSW,244,17.4,17.4,19,-99.99,,---,-99.99,VWS V14.01,2013-04-22 03:29:00,
2013-04-21 20:34:00,49.6,9.1,30.24,SW,223,15.4,15.4,19,-99.99,,---,-99.99,VWS V14.01,2013-04-22 03:34:00,
2013-04-21 20:39:00,49.6,9.1,30.24,SW,233,15.0,15.0,19,-99.99,,---,-99.99,VWS V14.01,2013-04-22 03:39:00,
2013-04-21 20:44:00,49.5,8.9,30.24,SW,224,17.9,17.9,19,-99.99,,---,-99.99,VWS V14.01,2013-04-22 03:44:00,
2013-04-21 20:50:00,49.3,8.8,30.24,SW,222,17.4,17.4,19,-99.99,,---,-99.99,VWS V14.01,2013-04-22 03:50:00,
2013-04-21 20:55:00,49.3,8.8,30.24,SW,219,20.6,20.6,19,-99.99,,---,-99.99,VWS V14.01,2013-04-22 03:55:00,
2013-04-21 21:00:00,48.9,8.5,30.24,SW,216,15.4,16.8,19,-99.99,,---,-99.99,VWS V14.01,2013-04-22 04:00:00,
2013-04-21 21:01:00,48.7,8.3,30.24,SW,224,15.4,15.4,19,-99.99,,---,-99.99,VWS V14.01,2013-04-22 04:01:00,
2013-04-21 21:06:00,48.6,8.2,30.24,SW,228,21.9,21.9,19,-99.99,,---,-99.99,VWS V14.01,2013-04-22 04:06:00,
2013-04-21 21:11:00,48.6,8.2,30.24,SW,224,15.0,15.0,19,-99.99,,---,-99.99,VWS V14.01,2013-04-22 04:11:00,
2013-04-21 21:16:00,48.6,8.2,30.24,SW,225,20.6,20.6,19,-99.99,,---,-99.99,VWS V14.01,2013-04-22 04:16:00,
2013-04-21 21:21:00,48.6,8.2,30.24,SW,229,19.7,19.7,19,-99.99,,---,-99.99,VWS V14.01,2013-04-22 04:21:00,
2013-04-21 21:26:00,48.0,7.7,30.24,SW,232,19.7,19.7,19,-99.99,,---,-99.99,VWS V14.01,2013-04-22 04:26:00,
2013-04-21 21:31:00,48.0,7.7,30.24,SW,225,20.1,20.1,19,-99.99,,---,-99.99,VWS V14.01,2013-04-22 04:31:00,
2013-04-21 21:36:00,48.0,7.7,30.24,SW,226,21.9,21.9,19,-99.99,,---,-99.99,VWS V14.01,2013-04-22 04:36:00,
2013-04-21 21:41:00,48.0,7.7,30.24,SW,221,20.6,20.6,19,-99.99,,---,-99.99,VWS V14.01,2013-04-22 04:41:00,
2013-04-21 21:46:00,48.7,8.3,30.24,SW,230,21.5,21.5,19,-99.99,,---,-99.99,VWS V14.01,2013-04-22 04:46:00,
2013-04-21 21:51:00,48.7,8.3,30.24,SW,224,23.7,23.7,19,-99.99,,---,-99.99,VWS V14.01,2013-04-22 04:51:00,
2013-04-21 21:56:00,48.7,8.3,30.24,WSW,241,21.9,22.4,19,-99.99,,---,-99.99,VWS V14.01,2013-04-22 04:56:00,
2013-04-21 22:01:00,48.7,8.3,30.24,SW,223,17.9,23.7,19,-99.99,,---,-99.99,VWS V14.01,2013-04-22 05:01:00,
2013-04-21 22:06:00,48.7,8.3,30.24,SW,224,16.3,19.7,19,-99.99,,---,-99.99,VWS V14.01,2013-04-22 05:06:00,
2013-04-21 22:12:00,48.7,8.3,30.24,WSW,237,22.8,22.8,19,-99.99,,---,-99.99,VWS V14.01,2013-04-22 05:12:00,
2013-04-21 22:17:00,48.7,8.3,30.24,SW,228,17.0,22.4,19,-99.99,,---,-99.99,VWS V14.01,2013-04-22 05:17:00,
2013-04-21 22:22:00,48.7,8.3,30.24,SW,225,21.5,21.5,19,-99.99,,---,-99.99,VWS V14.01,2013-04-22 05:22:00,
2013-04-21 22:27:00,48.7,8.3,30.24,WSW,243,17.9,24.2,19,-99.99,,---,-99.99,VWS V14.01,2013-04-22 05:27:00,
2013-04-21 22:32:00,48.7,8.3,30.24,WSW,239,21.9,21.9,19,-99.99,,---,-99.99,VWS V14.01,2013-04-22 05:32:00,
2013-04-21 22:37:00,48.7,8.3,30.24,SW,229,20.6,20.6,19,-99.99,,---,-99.99,VWS V14.01,2013-04-22 05:37:00,
2013-04-21 22:42:00,48.7,8.3,30.24,SW,232,18.8,22.8,19,-99.99,,---,-99.99,VWS V14.01,2013-04-22 05:42:00,
2013-04-21 22:47:00,48.7,8.3,30.24,SW,236,21.0,21.0,19,-99.99,,---,-99.99,VWS V14.01,2013-04-22 05:47:00,
2013-04-21 22:52:00,48.6,8.2,30.24,SW,230,18.3,20.1,19,-99.99,,---,-99.99,VWS V14.01,2013-04-22 05:52:00,
2013-04-21 22:57:00,48.4,8.0,30.24,WSW,243,20.6,20.6,19,-99.99,,---,-99.99,VWS V14.01,2013-04-22 05:57:00,
2013-04-21 23:02:00,48.6,8.2,30.24,WSW,242,22.8,25.5,19,-99.99,,---,-99.99,VWS V14.01,2013-04-22 06:02:00,
2013-04-21 23:07:00,48.6,8.2,30.24,SW,235,22.8,22.8,19,-99.99,,---,-99.99,VWS V14.01,2013-04-22 06:07:00,
2013-04-21 23:12:00,48.6,8.2,30.24,WSW,237,22.4,24.6,19,-99.99,,---,-99.99,VWS V14.01,2013-04-22 06:12:00,
2013-04-21 23:17:00,48.6,8.2,30.24,SW,232,22.4,22.4,19,-99.99,,---,-99.99,VWS V14.01,2013-04-22 06:17:00,
2013-04-21 23:22:00,48.4,8.0,30.24,SW,230,21.0,21.0,19,-99.99,,---,-99.99,VWS V14.01,2013-04-22 06:22:00,
2013-04-21 23:27:00,48.4,8.0,30.24,WSW,243,18.8,20.6,19,-99.99,,---,-99.99,VWS V14.01,2013-04-22 06:27:00,
2013-04-21 23:32:00,48.4,8.0,30.24,WSW,237,17.4,22.4,19,-99.99,,---,-99.99,VWS V14.01,2013-04-22 06:32:00,
2013-04-21 23:37:00,48.4,8.0,30.24,WSW,240,22.8,22.8,19,-99.99,,---,-99.99,VWS V14.01,2013-04-22 06:37:00,
2013-04-21 23:42:00,48.4,8.0,30.24,WSW,240,18.3,18.3,19,-99.99,,---,-99.99,VWS V14.01,2013-04-22 06:42:00,
2013-04-21 23:47:00,48.2,7.9,30.24,SW,230,22.4,22.4,19,-99.99,,---,-99.99,VWS V14.01,2013-04-22 06:47:00,
2013-04-21 23:52:00,48.4,8.0,30.24,WSW,244,22.4,22.4,19,-99.99,,---,-99.99,VWS V14.01,2013-04-22 06:52:00,
2013-04-21 23:57:00,48.4,8.0,30.24,WSW,247,22.8,22.8,19,-99.99,,---,-99.99,VWS V14.01,2013-04-22 06:57:00,